Time;durP1;ratioP1;P1;durP2;ratioP2;P2;SDS_P1;SDS_P2;PMS_P1;PMS_P2;Temp;Humidity;BMP_temperature;BMP_pressure;BME280_temperature;BME280_humidity;BME280_pressure;Samples;Min_cycle;Max_cycle;Signal;HPM_P1;HPM_P2
2022/11/29 00:00:33;;;;;;;40.13;22.60;;;8.10;99.90;;;;;;5043065;28;20260;-79
2022/11/29 00:02:59;;;;;;;41.40;22.60;;;8.00;99.90;;;;;;5055656;28;20197;-79
2022/11/29 00:05:27;;;;;;;38.13;21.93;;;8.00;99.90;;;;;;5055405;28;20190;-79
2022/11/29 00:07:53;;;;;;;40.10;22.13;;;8.00;99.90;;;;;;5052766;28;20590;-79
2022/11/29 00:10:21;;;;;;;37.53;21.97;;;7.90;99.90;;;;;;5035257;28;20198;-79
2022/11/29 00:12:46;;;;;;;39.00;22.70;;;7.90;99.90;;;;;;5035869;28;20203;-79
2022/11/29 00:15:15;;;;;;;42.40;23.27;;;7.90;99.90;;;;;;5053486;28;20263;-79
2022/11/29 00:17:42;;;;;;;38.40;22.93;;;7.90;99.90;;;;;;5054372;28;20198;-79
2022/11/29 00:20:10;;;;;;;58.97;29.67;;;7.90;99.90;;;;;;5054839;28;20292;-79
2022/11/29 00:22:37;;;;;;;51.37;26.27;;;7.90;99.90;;;;;;5055461;28;20234;-79
2022/11/29 00:25:05;;;;;;;43.90;25.43;;;7.90;99.90;;;;;;5054991;28;20205;-79
2022/11/29 00:27:32;;;;;;;49.03;26.80;;;7.80;99.90;;;;;;5037021;28;20217;-79
2022/11/29 00:29:59;;;;;;;41.27;24.50;;;7.80;99.90;;;;;;5035287;28;20206;-79
2022/11/29 00:32:27;;;;;;;41.03;24.00;;;7.80;99.90;;;;;;5034947;28;20548;-79
2022/11/29 00:34:54;;;;;;;42.20;23.83;;;7.70;99.90;;;;;;5035193;28;20595;-79
2022/11/29 00:37:21;;;;;;;40.83;23.13;;;7.70;99.90;;;;;;5044112;28;20226;-79
2022/11/29 00:39:47;;;;;;;39.23;23.53;;;7.60;99.90;;;;;;5054659;28;20289;-79
2022/11/29 00:42:14;;;;;;;41.47;22.87;;;7.60;99.90;;;;;;5055258;28;20499;-79
2022/11/29 00:44:41;;;;;;;37.37;21.37;;;7.60;99.90;;;;;;5043959;28;20557;-79
2022/11/29 00:47:08;;;;;;;42.50;23.63;;;7.50;99.90;;;;;;5034248;28;20199;-79
2022/11/29 00:49:37;;;;;;;38.73;22.53;;;7.50;99.90;;;;;;5038396;28;20694;-80
2022/11/29 00:52:04;;;;;;;39.87;23.87;;;7.40;99.90;;;;;;5054510;28;20198;-79
2022/11/29 00:54:31;;;;;;;40.70;22.87;;;7.40;99.90;;;;;;5054205;28;20198;-79
2022/11/29 00:56:58;;;;;;;37.63;22.77;;;7.40;99.90;;;;;;5054378;28;20538;-79
2022/11/29 00:59:24;;;;;;;39.33;22.20;;;7.30;99.90;;;;;;5054083;28;20209;-78
2022/11/29 01:01:51;;;;;;;41.50;23.27;;;7.30;99.90;;;;;;5054176;28;20193;-79
2022/11/29 01:04:19;;;;;;;50.77;27.30;;;7.30;99.90;;;;;;5053717;28;20209;-79
2022/11/29 01:06:50;;;;;;;47.10;26.20;;;7.30;99.90;;;;;;5053539;28;20197;-78
2022/11/29 01:09:17;;;;;;;43.47;25.20;;;7.30;99.90;;;;;;5054381;28;20219;-78
2022/11/29 01:11:44;;;;;;;49.83;27.60;;;7.30;99.90;;;;;;5054333;28;20542;-79
2022/11/29 01:14:12;;;;;;;44.87;25.33;;;7.30;99.90;;;;;;5052776;28;20856;-79
2022/11/29 01:16:38;;;;;;;53.20;27.23;;;7.20;99.90;;;;;;5036099;28;20218;-79
2022/11/29 01:19:07;;;;;;;52.67;27.13;;;7.30;99.90;;;;;;5034300;28;20290;-78
2022/11/29 01:21:34;;;;;;;46.73;26.77;;;7.20;99.90;;;;;;5034207;28;20493;-79
2022/11/29 01:24:02;;;;;;;49.50;25.87;;;7.20;99.90;;;;;;5033886;28;20238;-78
2022/11/29 01:26:31;;;;;;;54.30;26.87;;;7.20;99.90;;;;;;5034052;28;20205;-78
2022/11/29 01:28:58;;;;;;;50.73;27.50;;;7.20;99.90;;;;;;5033760;28;20203;-78
2022/11/29 01:31:27;;;;;;;45.57;24.43;;;7.20;99.90;;;;;;5037899;28;20249;-78
2022/11/29 01:33:55;;;;;;;44.17;24.57;;;7.20;99.90;;;;;;5053642;28;20198;-79
2022/11/29 01:36:22;;;;;;;47.43;26.97;;;7.20;99.90;;;;;;5036633;28;20233;-80
2022/11/29 01:38:49;;;;;;;50.70;26.13;;;7.20;99.90;;;;;;5033653;28;20799;-79
2022/11/29 01:41:19;;;;;;;44.90;25.17;;;7.20;99.90;;;;;;5033636;28;20500;-79
2022/11/29 01:43:56;;;;;;;42.37;25.87;;;7.20;99.90;;;;;;5044095;28;20214;-78
2022/11/29 01:46:24;;;;;;;45.57;25.93;;;7.20;99.90;;;;;;5053296;28;20217;-77
2022/11/29 01:48:55;;;;;;;41.83;24.17;;;7.20;99.90;;;;;;5051750;28;20764;-79
2022/11/29 01:51:22;;;;;;;39.97;23.30;;;7.30;99.90;;;;;;5034018;28;20293;-78
2022/11/29 01:53:49;;;;;;;35.93;23.73;;;7.30;99.90;;;;;;5033853;28;20213;-79
2022/11/29 01:56:17;;;;;;;33.57;20.87;;;7.30;99.90;;;;;;5033411;28;20219;-78
2022/11/29 01:58:45;;;;;;;32.77;20.23;;;7.30;99.90;;;;;;5037438;28;20206;-78
2022/11/29 02:01:12;;;;;;;32.33;21.43;;;7.30;99.90;;;;;;5053612;28;20194;-79
2022/11/29 02:03:39;;;;;;;32.73;20.33;;;7.30;99.90;;;;;;5052773;28;20201;-78
2022/11/29 02:06:08;;;;;;;31.93;20.97;;;7.20;99.90;;;;;;5053312;28;20202;-79
2022/11/29 02:08:39;;;;;;;29.63;19.50;;;7.20;99.90;;;;;;5052775;28;20206;-79
2022/11/29 02:11:31;;;;;;;29.27;19.83;;;7.30;99.90;;;;;;5052968;28;20196;-79
2022/11/29 02:14:12;;;;;;;31.47;19.47;;;7.20;99.90;;;;;;5052883;28;20212;-79
2022/11/29 02:16:51;;;;;;;28.33;19.67;;;7.20;99.90;;;;;;5052463;28;20243;-78
2022/11/29 02:19:40;;;;;;;27.43;18.20;;;7.20;99.90;;;;;;5053510;28;20494;-79
2022/11/29 02:22:12;;;;;;;24.70;17.50;;;7.20;99.90;;;;;;5052917;28;20194;-78
2022/11/29 02:25:11;;;;;;;26.93;18.83;;;7.20;99.90;;;;;;5052728;28;20221;-79
2022/11/29 02:28:27;;;;;;;29.37;20.20;;;7.20;99.90;;;;;;5041959;28;20194;-80
2022/11/29 02:31:08;;;;;;;27.17;19.10;;;7.20;99.90;;;;;;5033169;28;20206;-78
2022/11/29 02:33:59;;;;;;;25.07;18.17;;;7.20;99.90;;;;;;5033480;28;20194;-79
2022/11/29 02:37:03;;;;;;;24.10;16.83;;;7.20;99.90;;;;;;4999988;28;20654;-78
2022/11/29 02:39:57;;;;;;;23.60;17.83;;;7.20;99.90;;;;;;4993891;28;20213;-78
2022/11/29 02:42:49;;;;;;;25.00;18.13;;;7.20;99.90;;;;;;5053076;28;20645;-79
2022/11/29 02:45:31;;;;;;;24.57;17.77;;;7.20;99.90;;;;;;5051967;28;20214;-78
2022/11/29 02:48:17;;;;;;;20.43;15.77;;;7.20;99.90;;;;;;5040556;28;20276;-78
2022/11/29 02:50:53;;;;;;;22.17;16.07;;;7.20;99.90;;;;;;5032685;28;20241;-78
2022/11/29 02:53:27;;;;;;;20.70;15.50;;;7.10;99.90;;;;;;5031789;28;20202;-78
2022/11/29 02:56:01;;;;;;;20.87;15.73;;;7.10;99.90;;;;;;5032165;28;20209;-79
2022/11/29 02:58:36;;;;;;;21.53;15.77;;;7.10;99.90;;;;;;5032109;28;20206;-79
2022/11/29 03:01:10;;;;;;;21.10;16.23;;;7.00;99.90;;;;;;5031742;28;20206;-79
2022/11/29 03:03:43;;;;;;;19.73;15.30;;;7.00;99.90;;;;;;5032942;28;20212;-79
2022/11/29 03:06:18;;;;;;;20.10;15.57;;;7.00;99.90;;;;;;5031819;28;20201;-79
2022/11/29 03:08:56;;;;;;;18.60;14.87;;;7.00;99.90;;;;;;5031925;28;20200;-79
2022/11/29 03:11:29;;;;;;;20.83;16.17;;;7.00;99.90;;;;;;5042766;28;20227;-79
2022/11/29 03:14:12;;;;;;;20.27;16.47;;;7.00;99.90;;;;;;5051760;28;20190;-78
2022/11/29 03:16:46;;;;;;;21.17;16.67;;;7.00;99.90;;;;;;5040673;28;20634;-78
2022/11/29 03:19:33;;;;;;;19.83;15.93;;;6.90;99.90;;;;;;5032198;28;20202;-80
2022/11/29 03:22:11;;;;;;;20.93;16.03;;;6.90;99.90;;;;;;5031460;28;20194;-78
2022/11/29 03:24:45;;;;;;;20.00;15.47;;;6.90;99.90;;;;;;5032204;28;20683;-79
2022/11/29 03:27:16;;;;;;;19.73;16.03;;;6.80;99.90;;;;;;5032388;28;20228;-78
2022/11/29 03:29:50;;;;;;;21.03;15.70;;;6.80;99.90;;;;;;5044857;28;20367;-78
2022/11/29 03:32:22;;;;;;;19.03;14.73;;;6.80;99.90;;;;;;5052080;28;20285;-79
2022/11/29 03:34:59;;;;;;;18.83;14.67;;;6.70;99.90;;;;;;5051439;28;20206;-79
2022/11/29 03:37:33;;;;;;;18.37;14.60;;;6.70;99.90;;;;;;5054333;28;20213;-79
2022/11/29 03:40:06;;;;;;;19.27;15.00;;;6.70;99.90;;;;;;5056343;28;20212;-78
2022/11/29 03:42:37;;;;;;;21.30;15.53;;;6.70;99.90;;;;;;5055401;28;20190;-79
2022/11/29 03:45:08;;;;;;;27.23;18.93;;;6.60;99.90;;;;;;5036442;28;20237;-77
2022/11/29 03:47:41;;;;;;;23.17;17.40;;;6.60;99.90;;;;;;5039502;28;20202;-79
2022/11/29 03:50:15;;;;;;;22.87;17.37;;;6.50;99.90;;;;;;5055672;28;20220;-79
2022/11/29 03:52:48;;;;;;;18.30;14.13;;;6.50;99.90;;;;;;5047077;28;20210;-79
2022/11/29 03:55:30;;;;;;;17.33;13.80;;;6.40;99.90;;;;;;5036170;28;20209;-79
2022/11/29 03:58:10;;;;;;;18.40;14.80;;;6.40;99.90;;;;;;5035608;28;20206;-79
2022/11/29 04:00:52;;;;;;;18.77;14.20;;;6.40;99.90;;;;;;5035873;28;20568;-79
2022/11/29 04:03:35;;;;;;;18.37;14.40;;;6.40;99.90;;;;;;5054917;28;20512;-78
2022/11/29 04:06:28;;;;;;;17.03;13.70;;;6.30;99.90;;;;;;5055567;28;20209;-78
2022/11/29 04:09:19;;;;;;;17.67;14.47;;;6.30;99.90;;;;;;5055154;28;20201;-79
2022/11/29 04:12:37;;;;;;;16.40;13.17;;;6.30;99.90;;;;;;5055008;28;20206;-79
2022/11/29 04:15:42;;;;;;;18.60;14.57;;;6.30;99.90;;;;;;5042587;28;20289;-79
2022/11/29 04:18:37;;;;;;;18.03;13.83;;;6.20;99.90;;;;;;5034293;28;20459;-79
2022/11/29 04:21:30;;;;;;;15.67;13.03;;;6.20;99.90;;;;;;5050503;28;20206;-78
2022/11/29 04:24:31;;;;;;;17.77;13.17;;;6.20;99.90;;;;;;5054025;28;20226;-79
2022/11/29 04:27:49;;;;;;;18.27;13.37;;;6.20;99.90;;;;;;5055508;28;20190;-79
2022/11/29 04:30:21;;;;;;;18.17;13.83;;;6.10;99.90;;;;;;5041271;28;20210;-78
2022/11/29 04:33:28;;;;;;;16.17;13.43;;;6.10;99.90;;;;;;5054488;28;20201;-79
2022/11/29 04:36:22;;;;;;;16.27;12.67;;;6.10;99.90;;;;;;5055006;28;20208;-78
2022/11/29 04:39:23;;;;;;;17.90;13.70;;;6.00;99.90;;;;;;5043185;28;20206;-79
2022/11/29 04:42:30;;;;;;;16.43;13.33;;;6.00;99.90;;;;;;5055216;28;20190;-78
2022/11/29 04:45:11;;;;;;;21.87;16.20;;;6.00;99.90;;;;;;5034423;28;20215;-78
2022/11/29 04:47:53;;;;;;;17.87;13.60;;;5.90;99.90;;;;;;5033476;28;20277;-79
2022/11/29 04:50:31;;;;;;;17.13;13.90;;;5.90;99.90;;;;;;5034324;28;20205;-78
2022/11/29 04:53:28;;;;;;;17.63;13.90;;;5.90;99.90;;;;;;5053399;28;20205;-79
2022/11/29 04:56:04;;;;;;;16.90;13.73;;;5.90;99.90;;;;;;5053595;28;20198;-78
2022/11/29 04:58:37;;;;;;;17.90;14.63;;;5.90;99.90;;;;;;5054649;28;20540;-79
2022/11/29 05:01:11;;;;;;;19.33;15.40;;;5.90;99.90;;;;;;5038942;28;20198;-80
2022/11/29 05:03:45;;;;;;;18.07;14.53;;;5.90;99.90;;;;;;5034539;28;20206;-79
2022/11/29 05:06:22;;;;;;;18.33;14.40;;;5.90;99.90;;;;;;5034290;28;20202;-78
2022/11/29 05:08:58;;;;;;;18.03;14.10;;;5.80;99.90;;;;;;5052664;28;20216;-78
2022/11/29 05:11:42;;;;;;;19.00;15.07;;;5.80;99.90;;;;;;5054582;28;20422;-78
2022/11/29 05:14:19;;;;;;;19.07;14.53;;;5.80;99.90;;;;;;5054197;28;20603;-78
2022/11/29 05:16:49;;;;;;;14.90;11.80;;;5.80;99.90;;;;;;5053408;28;20225;-78
2022/11/29 05:19:34;;;;;;;15.30;11.77;;;5.70;99.90;;;;;;5054110;28;20508;-78
2022/11/29 05:22:13;;;;;;;13.50;10.77;;;5.70;99.90;;;;;;5053648;28;20224;-79
2022/11/29 05:24:55;;;;;;;13.27;11.30;;;5.70;99.90;;;;;;5054070;28;20208;-79
2022/11/29 05:27:36;;;;;;;14.47;11.83;;;5.70;99.90;;;;;;5053109;28;20190;-78
2022/11/29 05:30:06;;;;;;;14.57;11.50;;;5.70;99.90;;;;;;5054196;28;20291;-78
2022/11/29 05:32:38;;;;;;;14.10;11.27;;;5.60;99.90;;;;;;5042617;28;20210;-79
2022/11/29 05:35:42;;;;;;;14.80;11.37;;;5.60;99.90;;;;;;5033489;28;20217;-79
2022/11/29 05:38:23;;;;;;;12.90;10.77;;;5.60;99.90;;;;;;5036107;28;20218;-79
2022/11/29 05:41:02;;;;;;;13.03;11.27;;;5.60;99.90;;;;;;5053453;28;20285;-79
2022/11/29 05:43:55;;;;;;;13.90;11.33;;;5.60;99.90;;;;;;5054082;28;20194;-79
2022/11/29 05:46:29;;;;;;;14.07;11.53;;;5.50;99.90;;;;;;5050819;28;20217;-79
2022/11/29 05:49:04;;;;;;;15.80;11.23;;;5.50;99.90;;;;;;5033601;28;20191;-79
2022/11/29 05:51:40;;;;;;;16.63;12.10;;;5.50;99.90;;;;;;5033723;28;20206;-82
2022/11/29 05:54:19;;;;;;;16.57;12.50;;;5.50;99.90;;;;;;5034315;28;20233;-79
2022/11/29 05:56:54;;;;;;;16.43;11.60;;;5.50;99.90;;;;;;5033442;28;20206;-79
2022/11/29 05:59:25;;;;;;;15.50;12.20;;;5.50;99.90;;;;;;5033486;28;20195;-80
2022/11/29 06:02:01;;;;;;;15.07;11.77;;;5.50;99.90;;;;;;5033733;28;20194;-81
2022/11/29 06:04:48;;;;;;;14.87;11.70;;;5.50;99.90;;;;;;5033506;28;20233;-79
2022/11/29 06:07:19;;;;;;;17.70;12.40;;;5.50;99.90;;;;;;5033525;28;20571;-79
2022/11/29 06:09:55;;;;;;;18.13;12.80;;;5.50;99.90;;;;;;5033186;28;20767;-80
2022/11/29 06:12:25;;;;;;;17.40;12.73;;;5.40;99.90;;;;;;5043581;28;20198;-80
2022/11/29 06:15:17;;;;;;;15.10;11.57;;;5.40;99.90;;;;;;5052999;28;20264;-78
2022/11/29 06:17:57;;;;;;;16.10;12.40;;;5.40;99.90;;;;;;5052623;28;20214;-80
2022/11/29 06:20:42;;;;;;;16.20;11.93;;;5.40;99.90;;;;;;5032939;28;20618;-79
2022/11/29 06:23:31;;;;;;;18.23;13.23;;;5.40;99.90;;;;;;5032308;28;20654;-79
2022/11/29 06:26:17;;;;;;;15.80;11.50;;;5.40;99.90;;;;;;5033405;28;20198;-79
2022/11/29 06:28:56;;;;;;;17.17;12.57;;;5.40;99.90;;;;;;5041945;28;20208;-81
2022/11/29 06:31:27;;;;;;;18.00;12.93;;;5.40;99.90;;;;;;5052091;28;20193;-79
2022/11/29 06:34:02;;;;;;;19.50;13.87;;;5.40;99.90;;;;;;5052888;28;20198;-80
2022/11/29 06:36:34;;;;;;;17.70;13.27;;;5.30;99.90;;;;;;5052809;28;20200;-81
2022/11/29 06:39:01;;;;;;;16.50;12.83;;;5.30;99.90;;;;;;5051964;28;20206;-80
2022/11/29 06:41:30;;;;;;;17.30;12.33;;;5.30;99.90;;;;;;5051734;28;20208;-82
2022/11/29 06:43:57;;;;;;;16.53;12.23;;;5.30;99.90;;;;;;5051988;28;20308;-80
2022/11/29 06:46:38;;;;;;;18.40;12.60;;;5.30;99.90;;;;;;5052074;28;20320;-80
2022/11/29 06:49:11;;;;;;;17.07;11.90;;;5.30;99.90;;;;;;5052830;28;20188;-78
2022/11/29 06:51:48;;;;;;;17.73;13.70;;;5.30;99.90;;;;;;5038603;28;20218;-78
2022/11/29 06:54:32;;;;;;;20.23;14.53;;;5.20;99.90;;;;;;5032979;28;20651;-80
2022/11/29 06:57:06;;;;;;;20.43;14.30;;;5.20;99.90;;;;;;5032391;28;20198;-79
2022/11/29 06:59:46;;;;;;;19.60;13.73;;;5.20;99.90;;;;;;5049469;28;20212;-79
2022/11/29 07:02:31;;;;;;;17.70;12.67;;;5.20;99.90;;;;;;5052475;28;20313;-79
2022/11/29 07:05:08;;;;;;;17.57;13.93;;;5.20;99.90;;;;;;5052236;28;20739;-80
2022/11/29 07:07:35;;;;;;;26.03;15.90;;;5.20;99.90;;;;;;5051215;28;20582;-80
2022/11/29 07:10:04;;;;;;;24.73;18.03;;;5.20;99.90;;;;;;5052099;28;20213;-79
2022/11/29 07:12:33;;;;;;;27.90;19.60;;;5.20;99.90;;;;;;5050953;28;20201;-79
2022/11/29 07:15:00;;;;;;;29.70;21.53;;;5.20;99.90;;;;;;5048628;28;20202;-79
2022/11/29 07:17:35;;;;;;;26.60;20.77;;;5.20;99.90;;;;;;5032899;28;20218;-79
2022/11/29 07:20:10;;;;;;;24.50;19.10;;;5.20;99.90;;;;;;5031729;28;20193;-78
2022/11/29 07:22:49;;;;;;;23.10;17.23;;;5.30;99.90;;;;;;5032420;28;20229;-79
2022/11/29 07:25:25;;;;;;;19.93;15.73;;;5.30;99.90;;;;;;5032121;28;20206;-79
2022/11/29 07:28:01;;;;;;;19.40;15.63;;;5.30;99.90;;;;;;5036184;28;20201;-79
2022/11/29 07:30:33;;;;;;;21.00;16.87;;;5.30;99.90;;;;;;5050448;28;20293;-80
2022/11/29 07:33:09;;;;;;;18.60;14.70;;;5.30;99.90;;;;;;5051261;28;20207;-79
2022/11/29 07:35:45;;;;;;;17.47;14.20;;;5.30;99.90;;;;;;5051209;28;20201;-79
2022/11/29 07:38:24;;;;;;;15.57;12.87;;;5.30;99.90;;;;;;5051365;28;20223;-80
2022/11/29 07:40:56;;;;;;;17.37;14.53;;;5.20;99.90;;;;;;5050798;28;20189;-79
2022/11/29 07:43:36;;;;;;;15.73;13.13;;;5.20;99.90;;;;;;5051927;28;20190;-79
2022/11/29 07:46:03;;;;;;;17.10;13.60;;;5.20;99.90;;;;;;5051526;28;20633;-78
2022/11/29 07:48:30;;;;;;;13.87;12.40;;;5.20;99.90;;;;;;5039977;28;20318;-79
2022/11/29 07:50:57;;;;;;;16.87;12.97;;;5.20;99.90;;;;;;5031631;28;20202;-80
2022/11/29 07:53:24;;;;;;;15.60;13.03;;;5.20;99.90;;;;;;5031011;28;20203;-79
2022/11/29 07:55:51;;;;;;;14.73;11.97;;;5.20;99.90;;;;;;5031072;28;20232;-79
2022/11/29 07:58:18;;;;;;;14.87;12.83;;;5.20;99.90;;;;;;5048292;28;20221;-79
2022/11/29 08:00:47;;;;;;;15.60;11.93;;;5.30;99.90;;;;;;5051996;28;20200;-79
2022/11/29 08:03:13;;;;;;;13.67;11.77;;;5.30;99.90;;;;;;5051124;28;20288;-79
2022/11/29 08:05:45;;;;;;;14.97;12.33;;;5.30;99.90;;;;;;5032466;28;20210;-79
2022/11/29 08:08:12;;;;;;;14.33;12.27;;;5.40;99.90;;;;;;5030981;28;20195;-79
2022/11/29 08:10:39;;;;;;;15.17;12.83;;;5.40;99.90;;;;;;5030561;28;20205;-79
2022/11/29 08:13:06;;;;;;;14.70;12.23;;;5.50;99.90;;;;;;5050700;28;20194;-80
2022/11/29 08:15:33;;;;;;;15.00;11.97;;;5.50;99.90;;;;;;5048660;28;20230;-79
2022/11/29 08:18:01;;;;;;;17.00;13.17;;;5.50;99.90;;;;;;5047994;28;20228;-78
2022/11/29 08:20:28;;;;;;;15.40;13.80;;;5.60;99.90;;;;;;5039119;28;20296;-79
2022/11/29 08:22:57;;;;;;;16.07;13.30;;;5.60;99.90;;;;;;5038961;28;20360;-80
2022/11/29 08:25:24;;;;;;;13.53;11.93;;;5.70;99.90;;;;;;5051232;28;20209;-81
2022/11/29 08:27:51;;;;;;;15.70;13.10;;;5.80;99.90;;;;;;5051745;28;20202;-79
2022/11/29 08:30:21;;;;;;;15.20;13.13;;;5.80;99.90;;;;;;5049228;28;20904;-79
2022/11/29 08:32:49;;;;;;;16.40;13.83;;;5.90;99.90;;;;;;5048196;28;20202;-80
2022/11/29 08:35:17;;;;;;;15.30;13.63;;;6.00;99.90;;;;;;5053011;28;20202;-79
2022/11/29 08:37:44;;;;;;;16.23;13.87;;;6.00;99.90;;;;;;5033777;28;20325;-78
2022/11/29 08:40:12;;;;;;;16.03;13.13;;;6.10;99.90;;;;;;5034572;28;20221;-79
2022/11/29 08:42:39;;;;;;;17.37;13.40;;;6.10;99.90;;;;;;5034985;28;20202;-79
2022/11/29 08:45:08;;;;;;;15.63;13.03;;;6.20;99.90;;;;;;5037332;28;20642;-79
2022/11/29 08:47:38;;;;;;;16.80;13.87;;;6.20;99.90;;;;;;5054741;28;20209;-80
2022/11/29 08:50:09;;;;;;;17.67;13.93;;;6.30;99.90;;;;;;5054642;28;20201;-80
2022/11/29 08:55:25;;;;;;;18.17;14.00;;;6.40;99.90;;;;;;5054332;28;20320;-78
2022/11/29 08:57:53;;;;;;;22.03;16.73;;;6.50;99.90;;;;;;5053475;28;20250;-79
2022/11/29 09:00:21;;;;;;;20.47;15.97;;;6.60;99.90;;;;;;5054300;28;20198;-80
2022/11/29 09:02:48;;;;;;;19.97;15.67;;;6.60;99.90;;;;;;5054799;28;20206;-80
2022/11/29 09:05:15;;;;;;;19.43;14.80;;;6.70;99.90;;;;;;5054003;28;20217;-80
2022/11/29 09:07:45;;;;;;;19.03;15.63;;;6.70;99.90;;;;;;5054776;28;20259;-80
2022/11/29 09:10:12;;;;;;;16.93;14.30;;;6.70;99.90;;;;;;5054353;28;20288;-79
2022/11/29 09:12:43;;;;;;;19.53;15.20;;;6.70;99.90;;;;;;5054558;28;20194;-80
2022/11/29 09:15:10;;;;;;;18.83;16.00;;;6.70;99.90;;;;;;5054008;28;20217;-80
2022/11/29 09:17:38;;;;;;;19.27;15.63;;;6.70;99.90;;;;;;5054700;28;20618;-80
2022/11/29 09:20:07;;;;;;;17.77;15.07;;;6.70;99.90;;;;;;5053917;28;20240;-80
2022/11/29 09:22:33;;;;;;;16.40;13.93;;;6.70;99.90;;;;;;5054417;28;20740;-80
2022/11/29 09:25:02;;;;;;;18.90;14.60;;;6.70;99.90;;;;;;5038706;28;20210;-80
2022/11/29 09:27:29;;;;;;;18.30;15.00;;;6.70;99.90;;;;;;5034057;28;20565;-80
2022/11/29 09:29:56;;;;;;;17.67;14.93;;;6.70;99.90;;;;;;5044360;28;20197;-80
2022/11/29 09:32:23;;;;;;;17.90;14.77;;;6.70;99.90;;;;;;5053762;28;20629;-81
2022/11/29 09:34:50;;;;;;;16.00;14.20;;;6.70;99.90;;;;;;5053034;28;20771;-80
2022/11/29 09:37:16;;;;;;;17.90;14.37;;;6.70;99.90;;;;;;5053479;28;20210;-80
2022/11/29 09:39:43;;;;;;;17.60;14.90;;;6.70;99.90;;;;;;5053908;28;20226;-80
2022/11/29 09:42:42;;;;;;;19.40;15.27;;;6.60;99.90;;;;;;5052976;28;20209;-80
2022/11/29 09:45:13;;;;;;;18.07;14.63;;;6.60;99.90;;;;;;5041620;28;20217;-81
2022/11/29 09:48:13;;;;;;;16.63;13.97;;;6.60;99.90;;;;;;5053772;28;20197;-80
2022/11/29 09:50:47;;;;;;;18.87;15.00;;;6.60;99.90;;;;;;5040039;28;20213;-79
2022/11/29 09:53:38;;;;;;;16.97;14.17;;;6.60;99.90;;;;;;5034042;28;20193;-81
2022/11/29 09:56:16;;;;;;;20.60;16.57;;;6.70;99.90;;;;;;5040941;28;20205;-79
2022/11/29 09:58:49;;;;;;;19.63;15.37;;;6.70;99.90;;;;;;5053356;28;20226;-80
2022/11/29 10:01:21;;;;;;;20.53;15.23;;;6.70;99.90;;;;;;5051465;28;20209;-80
2022/11/29 10:03:52;;;;;;;20.13;16.27;;;6.80;99.90;;;;;;5033936;28;20202;-79
2022/11/29 10:06:24;;;;;;;19.40;15.53;;;6.90;99.90;;;;;;5033295;28;20610;-79
2022/11/29 10:08:57;;;;;;;22.57;16.30;;;6.90;99.90;;;;;;5033374;28;20526;-80
2022/11/29 10:11:27;;;;;;;22.93;18.07;;;7.10;99.90;;;;;;5033900;28;20198;-79
2022/11/29 10:14:01;;;;;;;24.90;18.17;;;7.20;99.90;;;;;;5033286;28;20638;-79
2022/11/29 10:16:39;;;;;;;28.67;18.50;;;7.30;99.90;;;;;;5033212;28;20198;-80
2022/11/29 10:19:14;;;;;;;25.43;17.60;;;7.40;99.90;;;;;;5033826;28;20222;-78
2022/11/29 10:21:45;;;;;;;22.50;17.57;;;7.50;99.90;;;;;;5033746;28;20195;-79
2022/11/29 10:24:16;;;;;;;30.23;17.87;;;7.60;99.90;;;;;;5036838;28;20291;-79
2022/11/29 10:26:43;;;;;;;23.03;17.53;;;7.70;99.90;;;;;;5053096;28;20233;-79
2022/11/29 10:29:14;;;;;;;24.40;17.57;;;7.80;99.90;;;;;;5036252;28;20202;-78
2022/11/29 10:31:43;;;;;;;22.20;16.90;;;7.90;99.90;;;;;;5033230;28;20210;-79
2022/11/29 10:34:14;;;;;;;23.70;17.07;;;7.90;99.90;;;;;;5032844;28;20614;-79
2022/11/29 10:36:44;;;;;;;23.57;16.77;;;8.00;99.90;;;;;;5051384;28;20210;-78
2022/11/29 10:39:16;;;;;;;23.40;17.03;;;8.10;99.90;;;;;;5052185;28;20232;-79
2022/11/29 10:41:43;;;;;;;21.77;16.37;;;8.20;99.90;;;;;;5052747;28;20187;-79
2022/11/29 10:44:14;;;;;;;20.10;15.70;;;8.30;99.90;;;;;;5051263;28;20284;-79
2022/11/29 10:46:41;;;;;;;22.63;16.40;;;8.30;99.90;;;;;;5032497;28;20225;-79
2022/11/29 10:49:13;;;;;;;23.47;17.57;;;8.40;99.90;;;;;;5032640;28;20199;-79
2022/11/29 10:51:40;;;;;;;22.17;15.50;;;8.50;99.90;;;;;;5031662;28;20206;-79
2022/11/29 10:54:28;;;;;;;20.23;15.53;;;8.60;99.90;;;;;;5049184;28;20216;-80
2022/11/29 10:56:58;;;;;;;24.27;15.93;;;8.60;99.90;;;;;;5049460;28;20201;-80
2022/11/29 10:59:28;;;;;;;27.30;18.13;;;8.70;99.90;;;;;;5033937;28;20717;-79
2022/11/29 11:01:57;;;;;;;33.00;20.13;;;8.80;99.90;;;;;;5052610;28;20206;-79
2022/11/29 11:04:29;;;;;;;25.30;17.47;;;8.80;99.90;;;;;;5051902;28;20204;-80
2022/11/29 11:07:00;;;;;;;27.13;18.33;;;8.90;99.90;;;;;;5047104;28;20290;-79
2022/11/29 11:09:32;;;;;;;25.43;18.20;;;8.90;99.90;;;;;;5048816;28;20208;-78
2022/11/29 11:12:01;;;;;;;26.50;18.80;;;9.00;99.90;;;;;;5049043;28;20645;-79
2022/11/29 11:14:31;;;;;;;26.40;17.50;;;9.10;99.90;;;;;;5032339;28;20202;-79
2022/11/29 11:17:16;;;;;;;26.80;17.67;;;9.10;99.90;;;;;;5032661;28;20195;-79
2022/11/29 11:19:53;;;;;;;27.00;19.33;;;9.20;99.90;;;;;;5032105;28;20253;-79
2022/11/29 11:22:22;;;;;;;26.70;18.33;;;9.30;99.90;;;;;;5031894;28;20211;-80
2022/11/29 11:24:58;;;;;;;27.90;18.27;;;9.30;99.90;;;;;;5032234;28;20285;-79
2022/11/29 11:27:33;;;;;;;26.47;18.03;;;9.40;99.90;;;;;;5032133;28;20213;-80
2022/11/29 11:30:03;;;;;;;21.27;13.00;;;9.50;99.90;;;;;;5031949;28;20200;-79
2022/11/29 11:32:30;;;;;;;22.03;11.10;;;9.60;99.90;;;;;;5032212;28;20293;-79
2022/11/29 11:34:59;;;;;;;24.13;7.87;;;9.70;99.90;;;;;;5032190;28;20205;-80
2022/11/29 11:37:27;;;;;;;19.43;6.93;;;9.90;99.90;;;;;;5050633;28;20240;-80
2022/11/29 11:39:56;;;;;;;21.83;6.53;;;10.00;99.90;;;;;;5051612;28;20819;-80
2022/11/29 11:42:36;;;;;;;19.13;6.27;;;10.00;99.90;;;;;;5051825;28;20732;-80
2022/11/29 11:45:21;;;;;;;23.83;6.50;;;10.10;99.90;;;;;;5050721;28;20230;-80
2022/11/29 11:47:52;;;;;;;24.90;6.87;;;10.10;99.90;;;;;;5050853;28;20205;-79
2022/11/29 11:50:28;;;;;;;20.87;6.80;;;10.10;99.90;;;;;;5051292;28;20196;-80
2022/11/29 11:52:57;;;;;;;27.50;8.10;;;10.10;99.90;;;;;;5051108;28;20197;-79
2022/11/29 11:55:37;;;;;;;19.97;6.80;;;10.20;99.90;;;;;;5051293;28;20590;-79
2022/11/29 11:58:15;;;;;;;21.83;6.70;;;10.10;99.90;;;;;;5053891;28;20197;-79
2022/11/29 12:00:47;;;;;;;24.53;7.67;;;10.10;99.90;;;;;;5054637;28;20295;-79
2022/11/29 12:03:43;;;;;;;18.80;7.27;;;10.10;99.90;;;;;;5055237;28;20205;-79
2022/11/29 12:06:31;;;;;;;28.00;8.20;;;10.10;99.90;;;;;;5049778;28;20221;-78
2022/11/29 12:09:04;;;;;;;19.80;7.67;;;10.20;99.90;;;;;;5026327;28;20202;-79
2022/11/29 12:11:37;;;;;;;16.53;6.53;;;10.20;99.90;;;;;;5036362;28;20195;-80
2022/11/29 12:14:06;;;;;;;17.23;6.10;;;10.20;99.90;;;;;;5035570;28;20255;-80
2022/11/29 12:16:39;;;;;;;17.10;7.03;;;10.20;99.90;;;;;;5047839;28;20209;-79
2022/11/29 12:19:14;;;;;;;23.43;6.90;;;10.20;99.90;;;;;;5055206;28;20552;-79
2022/11/29 12:21:46;;;;;;;21.70;7.97;;;10.20;99.90;;;;;;5055330;28;20190;-79
2022/11/29 12:24:20;;;;;;;19.77;6.40;;;10.20;99.90;;;;;;5051043;28;21103;-80
2022/11/29 12:26:47;;;;;;;15.07;6.70;;;10.20;99.90;;;;;;5055558;28;20289;-80
2022/11/29 12:29:17;;;;;;;22.20;6.60;;;10.20;99.90;;;;;;5050211;28;20198;-81
2022/11/29 12:31:57;;;;;;;18.57;6.60;;;10.20;99.90;;;;;;5034793;28;20240;-80
2022/11/29 12:34:55;;;;;;;17.57;6.33;;;10.30;99.90;;;;;;5035280;28;20710;-80
2022/11/29 12:37:32;;;;;;;15.40;5.43;;;10.40;99.90;;;;;;5034540;28;20540;-80
2022/11/29 12:40:06;;;;;;;9.90;5.23;;;10.40;99.90;;;;;;5041276;28;20205;-80
2022/11/29 12:42:48;;;;;;;16.47;5.30;;;10.40;99.90;;;;;;5054798;28;20186;-80
2022/11/29 12:45:32;;;;;;;16.03;5.87;;;10.40;99.90;;;;;;5043881;28;20223;-80
2022/11/29 12:48:14;;;;;;;9.07;4.40;;;10.40;99.90;;;;;;5046338;28;20217;-80
2022/11/29 12:51:03;;;;;;;17.43;5.67;;;10.40;99.90;;;;;;5043207;28;20190;-80
2022/11/29 12:53:54;;;;;;;17.50;5.77;;;10.40;99.90;;;;;;5053857;28;20771;-80
2022/11/29 12:56:26;;;;;;;11.13;4.60;;;10.50;99.90;;;;;;5036431;28;20252;-79
2022/11/29 12:59:15;;;;;;;14.67;5.10;;;10.50;99.90;;;;;;5054075;28;20186;-79
2022/11/29 13:02:02;;;;;;;16.27;4.93;;;10.50;99.90;;;;;;5041139;28;20240;-81
2022/11/29 13:04:38;;;;;;;11.33;4.27;;;10.50;99.90;;;;;;5050392;28;20194;-80
2022/11/29 13:07:13;;;;;;;13.37;4.63;;;10.50;99.90;;;;;;5034637;28;20218;-79
2022/11/29 13:10:01;;;;;;;11.63;4.80;;;10.50;99.90;;;;;;5033418;28;20482;-81
2022/11/29 13:12:35;;;;;;;8.10;3.97;;;10.50;99.90;;;;;;5034383;28;20229;-80
2022/11/29 13:15:08;;;;;;;8.73;3.07;;;10.40;99.90;;;;;;5034086;28;20201;-80
2022/11/29 13:17:41;;;;;;;16.73;4.47;;;10.40;99.90;;;;;;5038362;28;20198;-80
2022/11/29 13:20:25;;;;;;;12.50;3.93;;;10.40;99.90;;;;;;5045802;28;20207;-80